createdAt,value
2018-09-09T00:03:17.203Z,16.40
2018-09-09T00:07:20.854Z,16.40
2018-09-09T00:11:24.475Z,16.40
2018-09-09T00:15:28.174Z,16.40
2018-09-09T00:19:31.833Z,16.40
2018-09-09T00:23:35.514Z,16.40
2018-09-09T00:27:39.199Z,16.40
2018-09-09T00:31:42.899Z,16.40
2018-09-09T00:35:46.555Z,16.40
2018-09-09T00:39:50.207Z,16.40
2018-09-09T00:43:53.896Z,16.40
2018-09-09T00:47:57.533Z,16.40
2018-09-09T00:52:06.301Z,16.40
2018-09-09T00:56:10.011Z,16.30
2018-09-09T01:00:13.660Z,16.30
2018-09-09T01:04:26.113Z,16.30
2018-09-09T01:08:29.760Z,16.30
2018-09-09T01:12:33.386Z,16.20
2018-09-09T01:16:37.029Z,16.20
2018-09-09T01:20:40.668Z,16.20
2018-09-09T01:24:44.380Z,16.20
2018-09-09T01:28:48.105Z,16.10
2018-09-09T01:32:51.800Z,16.10
2018-09-09T01:36:55.474Z,16.10
2018-09-09T01:40:59.147Z,16.00
2018-09-09T01:45:02.819Z,16.00
2018-09-09T01:49:06.711Z,15.90
2018-09-09T01:53:10.380Z,15.90
2018-09-09T01:57:14.028Z,15.90
2018-09-09T02:01:17.795Z,15.90
2018-09-09T02:05:21.467Z,15.80
2018-09-09T02:09:25.225Z,15.80
2018-09-09T02:13:30.359Z,15.80
2018-09-09T02:17:34.016Z,15.70
2018-09-09T02:21:37.700Z,15.80
2018-09-09T02:25:41.478Z,15.70
2018-09-09T02:29:45.191Z,15.70
2018-09-09T02:33:48.844Z,15.60
2018-09-09T02:37:52.492Z,15.60
2018-09-09T02:41:56.154Z,15.60
2018-09-09T02:45:59.814Z,15.60
2018-09-09T02:50:03.512Z,15.60
2018-09-09T02:54:07.180Z,15.50
2018-09-09T02:58:10.835Z,15.50
2018-09-09T03:02:14.471Z,15.40
2018-09-09T03:06:18.131Z,15.40
2018-09-09T03:10:21.776Z,15.30
2018-09-09T03:14:25.449Z,15.30
2018-09-09T03:18:29.173Z,15.30
2018-09-09T03:22:32.879Z,15.20
2018-09-09T03:26:36.550Z,15.20
2018-09-09T03:30:40.245Z,15.20
2018-09-09T03:34:44.144Z,15.10
2018-09-09T03:38:47.867Z,15.10
2018-09-09T03:42:51.511Z,15.10
2018-09-09T03:46:55.236Z,15.10
2018-09-09T03:50:58.884Z,15.00
2018-09-09T03:55:02.544Z,15.00
2018-09-09T03:59:06.224Z,15.00
2018-09-09T04:03:09.892Z,15.00
2018-09-09T04:07:13.572Z,15.00
2018-09-09T04:11:17.226Z,15.00
2018-09-09T04:15:20.862Z,15.00
2018-09-09T04:19:24.556Z,15.00
2018-09-09T04:23:28.216Z,15.00
2018-09-09T04:27:31.888Z,14.90
2018-09-09T04:31:35.523Z,14.80
2018-09-09T04:35:39.173Z,14.80
2018-09-09T04:39:42.800Z,14.70
2018-09-09T04:43:46.448Z,14.70
2018-09-09T04:47:50.092Z,14.60
2018-09-09T04:51:53.739Z,14.60
2018-09-09T04:55:57.394Z,14.60
2018-09-09T05:00:01.014Z,14.60
2018-09-09T05:04:04.697Z,14.60
2018-09-09T05:08:08.341Z,14.60
2018-09-09T05:12:11.988Z,14.60
2018-09-09T05:16:15.696Z,14.60
2018-09-09T05:20:19.318Z,14.70
2018-09-09T05:24:22.941Z,14.70
2018-09-09T05:28:26.771Z,14.70
2018-09-09T05:32:30.431Z,14.70
2018-09-09T05:36:34.087Z,14.70
2018-09-09T05:40:37.704Z,14.80
2018-09-09T05:44:41.442Z,14.70
2018-09-09T05:48:45.044Z,14.70
2018-09-09T05:52:48.701Z,14.70
2018-09-09T05:56:52.435Z,14.70
2018-09-09T06:00:56.046Z,14.70
2018-09-09T06:04:59.703Z,14.70
2018-09-09T06:09:03.565Z,14.70
2018-09-09T06:13:07.246Z,14.80
2018-09-09T06:17:10.882Z,15.00
2018-09-09T06:21:14.512Z,15.10
2018-09-09T06:25:18.184Z,15.20
2018-09-09T06:29:21.863Z,15.40
2018-09-09T06:33:25.497Z,15.50
2018-09-09T06:37:29.107Z,15.60
2018-09-09T06:41:32.748Z,15.70
2018-09-09T06:45:36.368Z,15.80
2018-09-09T06:49:40.041Z,15.80
2018-09-09T06:53:43.669Z,15.90
2018-09-09T06:57:47.268Z,16.00
2018-09-09T07:01:50.914Z,16.10
2018-09-09T07:05:54.567Z,16.20
2018-09-09T07:09:58.195Z,16.40
2018-09-09T07:14:01.806Z,16.50
2018-09-09T07:18:05.439Z,16.60
2018-09-09T07:22:09.102Z,16.80
2018-09-09T07:26:12.759Z,16.90
2018-09-09T07:30:16.533Z,17.00
2018-09-09T07:34:20.215Z,17.20
2018-09-09T07:38:23.990Z,17.40
2018-09-09T07:42:27.642Z,17.60
2018-09-09T07:46:31.353Z,17.90
2018-09-09T07:50:35.049Z,18.20
2018-09-09T07:54:38.776Z,19.00
2018-09-09T07:58:42.405Z,19.00
2018-09-09T08:02:46.048Z,19.60
2018-09-09T08:06:49.719Z,19.90
2018-09-09T08:10:53.357Z,20.10
2018-09-09T08:14:57.043Z,20.20
2018-09-09T08:19:00.677Z,20.30
2018-09-09T08:23:04.320Z,20.40
2018-09-09T08:27:07.963Z,20.80
2018-09-09T08:31:11.631Z,20.80
2018-09-09T08:35:15.270Z,20.80
2018-09-09T08:39:20.342Z,20.70
2018-09-09T08:43:24.390Z,20.70
2018-09-09T08:47:28.035Z,20.60
2018-09-09T08:51:31.666Z,20.50
2018-09-09T08:55:35.307Z,20.40
2018-09-09T08:59:38.938Z,20.40
2018-09-09T09:03:42.581Z,20.30
2018-09-09T09:07:46.260Z,20.30
2018-09-09T09:11:49.927Z,20.30
2018-09-09T09:15:53.565Z,20.20
2018-09-09T09:19:57.180Z,20.30
2018-09-09T09:24:00.809Z,20.30
2018-09-09T09:28:04.490Z,20.30
2018-09-09T09:32:08.251Z,20.20
2018-09-09T09:36:11.903Z,20.20
2018-09-09T09:40:15.528Z,20.30
2018-09-09T09:44:19.234Z,20.30
2018-09-09T09:48:22.865Z,20.30
2018-09-09T09:52:26.603Z,20.30
2018-09-09T09:56:30.293Z,20.40
2018-09-09T10:00:39.211Z,20.40
2018-09-09T10:04:42.863Z,20.50
2018-09-09T10:08:46.498Z,20.50
2018-09-09T10:12:50.177Z,20.50
2018-09-09T10:16:53.831Z,20.50
2018-09-09T10:20:57.487Z,20.60
2018-09-09T10:25:01.225Z,20.70
2018-09-09T10:29:05.036Z,20.80
2018-09-09T10:33:08.710Z,20.90
2018-09-09T10:37:12.327Z,21.00
2018-09-09T10:41:16.029Z,21.20
2018-09-09T10:45:19.742Z,21.30
2018-09-09T10:49:23.355Z,21.40
2018-09-09T10:53:26.986Z,21.40
2018-09-09T10:57:30.600Z,21.50
2018-09-09T11:01:34.235Z,21.50
2018-09-09T11:05:37.876Z,21.50
2018-09-09T11:09:41.536Z,21.60
2018-09-09T11:13:45.160Z,21.60
2018-09-09T11:17:48.767Z,21.60
2018-09-09T11:21:52.419Z,21.70
2018-09-09T11:25:56.059Z,21.70
2018-09-09T11:29:59.801Z,21.70
2018-09-09T11:34:03.529Z,21.80
2018-09-09T11:38:07.140Z,21.80
2018-09-09T11:42:10.935Z,21.80
2018-09-09T11:46:14.603Z,21.90
2018-09-09T11:50:18.304Z,21.90
2018-09-09T11:54:24.767Z,21.90
2018-09-09T11:58:28.439Z,21.90
2018-09-09T12:02:32.155Z,22.00
2018-09-09T12:06:35.904Z,22.10
2018-09-09T12:10:39.573Z,22.10
2018-09-09T12:14:43.179Z,22.20
2018-09-09T12:18:46.847Z,22.40
2018-09-09T12:22:50.500Z,22.50
2018-09-09T12:26:54.178Z,22.60
2018-09-09T12:30:57.876Z,22.80
2018-09-09T12:35:01.525Z,23.00
2018-09-09T12:39:06.548Z,23.20
2018-09-09T12:43:15.365Z,23.30
2018-09-09T12:47:24.381Z,23.50
2018-09-09T12:51:28.035Z,23.50
2018-09-09T12:55:31.776Z,23.60
2018-09-09T12:59:35.538Z,23.70
2018-09-09T13:03:39.205Z,23.80
2018-09-09T13:07:42.947Z,23.90
2018-09-09T13:11:46.620Z,24.00
2018-09-09T13:15:50.284Z,24.00
2018-09-09T13:19:53.901Z,24.10
2018-09-09T13:23:57.560Z,24.20
2018-09-09T13:28:01.304Z,24.20
2018-09-09T13:32:05.021Z,24.20
2018-09-09T13:36:08.680Z,24.30
2018-09-09T13:40:12.446Z,24.30
2018-09-09T13:44:16.108Z,24.40
2018-09-09T13:48:19.917Z,24.40
2018-09-09T13:52:23.540Z,24.40
2018-09-09T13:56:27.215Z,24.50
2018-09-09T14:00:30.819Z,24.60
2018-09-09T14:04:34.469Z,24.60
2018-09-09T14:08:38.149Z,24.70
2018-09-09T14:12:41.873Z,24.80
2018-09-09T14:16:45.531Z,24.90
2018-09-09T14:20:49.209Z,25.00
2018-09-09T14:24:52.939Z,25.10
2018-09-09T14:28:56.663Z,25.20
2018-09-09T14:33:00.292Z,25.30
2018-09-09T14:37:03.953Z,25.40
2018-09-09T14:41:07.581Z,25.50
2018-09-09T14:45:11.225Z,25.60
2018-09-09T14:49:14.915Z,25.80
2018-09-09T14:53:18.662Z,25.80
2018-09-09T14:57:22.311Z,25.80
2018-09-09T15:01:25.971Z,25.80
2018-09-09T15:05:29.632Z,25.90
2018-09-09T15:09:33.255Z,26.00
2018-09-09T15:13:36.982Z,26.00
2018-09-09T15:17:40.624Z,26.00
2018-09-09T15:21:44.219Z,26.00
2018-09-09T15:25:47.993Z,26.00
2018-09-09T15:29:51.659Z,26.00
2018-09-09T15:33:55.332Z,26.10
2018-09-09T15:37:59.020Z,26.10
2018-09-09T15:42:02.626Z,26.20
2018-09-09T15:46:06.266Z,26.10
2018-09-09T15:50:09.947Z,26.10
2018-09-09T15:54:13.617Z,26.00
2018-09-09T15:58:17.269Z,26.00
2018-09-09T16:02:20.896Z,25.90
2018-09-09T16:06:24.539Z,25.90
2018-09-09T16:10:28.188Z,25.80
2018-09-09T16:14:31.834Z,25.80
2018-09-09T16:18:35.517Z,25.70
2018-09-09T16:22:39.166Z,25.70
2018-09-09T16:26:42.815Z,25.60
2018-09-09T16:30:46.601Z,25.60
2018-09-09T16:34:50.263Z,25.60
2018-09-09T16:38:53.929Z,25.60
2018-09-09T16:42:57.590Z,25.60
2018-09-09T16:47:01.341Z,25.60
2018-09-09T16:51:05.016Z,25.50
2018-09-09T16:55:08.721Z,25.40
2018-09-09T16:59:18.859Z,25.30
2018-09-09T17:03:22.510Z,25.10
2018-09-09T17:07:26.259Z,25.00
2018-09-09T17:11:29.904Z,24.80
2018-09-09T17:15:33.565Z,24.70
2018-09-09T17:19:37.220Z,24.60
2018-09-09T17:23:40.929Z,24.50
2018-09-09T17:27:44.621Z,24.40
2018-09-09T17:31:48.294Z,24.30
2018-09-09T17:35:51.958Z,24.30
2018-09-09T17:39:55.609Z,24.20
2018-09-09T17:43:59.231Z,24.10
2018-09-09T17:48:02.982Z,24.00
2018-09-09T17:52:06.784Z,23.90
2018-09-09T17:56:10.439Z,23.80
2018-09-09T18:00:14.622Z,23.60
2018-09-09T18:04:18.256Z,23.50
2018-09-09T18:08:21.958Z,23.40
2018-09-09T18:12:25.618Z,23.30
2018-09-09T18:16:29.277Z,23.10
2018-09-09T18:20:33.014Z,23.00
2018-09-09T18:24:36.587Z,22.80
2018-09-09T18:28:40.255Z,22.70
2018-09-09T18:32:43.910Z,22.50
2018-09-09T18:36:47.561Z,22.40
2018-09-09T18:40:51.226Z,22.20
2018-09-09T18:44:54.866Z,22.10
2018-09-09T18:48:58.514Z,22.00
2018-09-09T18:53:02.186Z,21.90
2018-09-09T18:57:05.991Z,21.80
2018-09-09T19:01:09.750Z,21.60
2018-09-09T19:05:13.389Z,21.60
2018-09-09T19:09:17.048Z,21.50
2018-09-09T19:13:20.703Z,21.30
2018-09-09T19:17:24.420Z,21.20
2018-09-09T19:21:28.144Z,21.10
2018-09-09T19:25:31.793Z,21.00
2018-09-09T19:29:35.540Z,20.90
2018-09-09T19:33:39.191Z,20.70
2018-09-09T19:37:42.837Z,20.60
2018-09-09T19:41:46.512Z,20.50
2018-09-09T19:45:50.134Z,20.30
2018-09-09T19:49:53.888Z,20.30
2018-09-09T19:53:57.576Z,20.10
2018-09-09T19:58:01.332Z,20.00
2018-09-09T20:02:04.971Z,19.90
2018-09-09T20:06:08.664Z,19.80
2018-09-09T20:10:12.416Z,19.70
2018-09-09T20:14:16.055Z,19.50
2018-09-09T20:18:19.791Z,19.50
2018-09-09T20:22:23.400Z,19.40
2018-09-09T20:26:27.092Z,19.30
2018-09-09T20:30:30.798Z,19.20
2018-09-09T20:34:34.530Z,19.10
2018-09-09T20:38:38.315Z,19.10
2018-09-09T20:42:41.958Z,19.00
2018-09-09T20:46:45.628Z,19.00
2018-09-09T20:50:49.350Z,18.90
2018-09-09T20:54:52.998Z,18.70
2018-09-09T20:58:56.666Z,18.70
2018-09-09T21:03:00.283Z,18.60
2018-09-09T21:07:03.975Z,18.50
2018-09-09T21:11:07.998Z,18.40
2018-09-09T21:15:11.676Z,18.40
2018-09-09T21:19:15.371Z,18.30
2018-09-09T21:23:19.069Z,18.20
2018-09-09T21:27:22.736Z,18.10
2018-09-09T21:31:26.426Z,18.00
2018-09-09T21:35:30.073Z,17.90
2018-09-09T21:39:33.737Z,17.80
2018-09-09T21:43:37.391Z,17.70
2018-09-09T21:47:41.014Z,17.60
2018-09-09T21:51:44.662Z,17.60
2018-09-09T21:55:48.305Z,17.40
2018-09-09T21:59:51.948Z,17.40
2018-09-09T22:03:57.562Z,17.30
2018-09-09T22:08:01.224Z,17.20
2018-09-09T22:12:05.051Z,17.10
2018-09-09T22:16:08.708Z,17.00
2018-09-09T22:20:12.462Z,17.00
2018-09-09T22:24:16.669Z,17.00
2018-09-09T22:28:20.323Z,16.90
2018-09-09T22:32:23.968Z,16.90
2018-09-09T22:36:27.602Z,16.80
2018-09-09T22:40:31.229Z,16.80
2018-09-09T22:44:34.870Z,16.80
2018-09-09T22:48:38.478Z,16.80
2018-09-09T22:52:42.135Z,16.80
2018-09-09T22:56:45.812Z,16.80
2018-09-09T23:00:49.899Z,16.70
2018-09-09T23:04:53.649Z,16.70
2018-09-09T23:08:57.375Z,16.60
2018-09-09T23:13:01.010Z,16.60
2018-09-09T23:17:04.830Z,16.50
2018-09-09T23:21:08.507Z,16.50
2018-09-09T23:25:12.159Z,16.50
2018-09-09T23:29:15.858Z,16.40
2018-09-09T23:33:19.552Z,16.40
2018-09-09T23:37:23.196Z,16.40
2018-09-09T23:41:26.848Z,16.30
2018-09-09T23:45:30.483Z,16.30
2018-09-09T23:49:34.215Z,16.20
2018-09-09T23:53:37.843Z,16.20
2018-09-09T23:57:41.524Z,16.20
